aviador You're here:

SVBM Decoded Metar

BARQUISIMETO in VENEZUELA
Report Time2018-01-21 18:08:00
UTC Time2018-01-21 18:29:05
Flight Rules vfr VFR
Wind110° at 11 kt
W.Decomp.*RWY 09: 9.6 kt HW 5.3 kt RCW
W.Rank110° ranks 1
Current wind is above 110° avg. (8.5)
Visibility9999 m
Phenomena:N/A
Clouds:Few 016 Hf
Expected CloudBase > 5,600 ft AGL from Temp-Dew spread
CeilingNone
Temp30°C (ISA +19)
Dew Point16°C (43% RH)
Heat Index30.1°C
AAT28.0°C
QNH1014 hPa
Density Alt4,396 ft
Elevation2,014 ft
Report Wrong Elevation
Raw Report
METAR SVBM 211808Z 11011KT 9999 FEW016 30/16 Q1014=

Extra information for SVBM:More info

Metar Taf Metar & Taf Last 4 Metars F.Rules Stats Wind Profile Meteogram Temp Stats Airport Information Weather charts Add Link Nearby VenuesMetar ALERT Operation Metar Decoded Social comments